Time;durP1;ratioP1;P1;durP2;ratioP2;P2;SDS_P1;SDS_P2;PMS_P1;PMS_P2;Temp;Humidity;BMP_temperature;BMP_pressure;BME280_temperature;BME280_humidity;BME280_pressure;Samples;Min_cycle;Max_cycle;Signal;HPM_P1;HPM_P2
2023/12/02 00:01:51;;;;;;;1999.90;999.90;;;0.30;21.10;;;;;;4994553;28;20298;-70
2023/12/02 00:04:17;;;;;;;1999.90;999.90;;;0.30;45.50;;;;;;4994596;28;20252;-70
2023/12/02 00:06:43;;;;;;;1999.90;999.90;;;0.30;57.20;;;;;;4994281;28;20269;-71
2023/12/02 00:09:09;;;;;;;1999.90;999.90;;;0.30;45.50;;;;;;4994296;28;20925;-70
2023/12/02 00:11:34;;;;;;;1999.90;999.90;;;0.30;32.20;;;;;;4994374;28;20653;-70
2023/12/02 00:14:00;;;;;;;1999.90;999.90;;;0.30;44.20;;;;;;4994202;28;20269;-70
2023/12/02 00:16:25;;;;;;;1999.90;999.90;;;0.30;56.20;;;;;;4994283;28;20649;-70
2023/12/02 00:18:51;;;;;;;1999.90;999.90;;;0.30;84.80;;;;;;4994189;28;20205;-71
2023/12/02 00:21:17;;;;;;;1999.90;999.90;;;0.30;93.70;;;;;;4994428;28;20166;-70
2023/12/02 00:23:42;;;;;;;1999.90;999.90;;;0.30;99.90;;;;;;4994435;28;20178;-70
2023/12/02 00:26:08;;;;;;;1999.90;999.90;;;0.30;99.90;;;;;;4994562;28;20209;-71
2023/12/02 00:28:34;;;;;;;1999.90;999.90;;;0.30;99.90;;;;;;4993982;28;20193;-71
2023/12/02 00:30:59;;;;;;;1999.90;999.90;;;0.20;99.90;;;;;;4994291;28;20245;-70
2023/12/02 00:33:25;;;;;;;1999.90;999.90;;;0.30;99.90;;;;;;4994443;28;20759;-71
2023/12/02 00:35:51;;;;;;;1999.90;999.90;;;0.30;99.90;;;;;;4994171;28;20261;-70
2023/12/02 00:38:16;;;;;;;1999.90;999.90;;;0.30;99.90;;;;;;4993798;28;20206;-70
2023/12/02 00:40:42;;;;;;;1999.90;999.90;;;0.40;99.90;;;;;;4994078;28;20166;-70
2023/12/02 00:43:07;;;;;;;1999.90;999.90;;;0.40;99.90;;;;;;4994060;28;20178;-71
2023/12/02 00:45:33;;;;;;;1999.90;999.90;;;0.40;99.90;;;;;;4993908;28;20169;-70
2023/12/02 00:47:58;;;;;;;1999.90;999.90;;;0.30;99.90;;;;;;4993555;28;20201;-71
2023/12/02 00:50:24;;;;;;;1999.90;999.90;;;0.30;99.90;;;;;;4993764;28;20543;-71
2023/12/02 00:52:50;;;;;;;1999.90;999.90;;;0.30;99.90;;;;;;4993529;28;20711;-70
2023/12/02 00:55:15;;;;;;;1999.90;999.90;;;0.30;99.90;;;;;;4993368;28;20178;-70
2023/12/02 00:57:41;;;;;;;1999.90;999.90;;;0.40;64.60;;;;;;4992952;28;20292;-70
2023/12/02 01:00:08;;;;;;;1999.90;999.90;;;0.20;99.90;;;;;;4993439;28;20248;-70
2023/12/02 01:02:33;;;;;;;1999.90;999.90;;;0.20;99.90;;;;;;4993581;28;20827;-70
2023/12/02 01:04:59;;;;;;;1999.90;999.90;;;0.20;1.00;;;;;;4993335;28;20248;-70
2023/12/02 01:07:24;;;;;;;1999.90;999.90;;;0.30;99.90;;;;;;4992969;28;20166;-69
2023/12/02 01:09:50;;;;;;;1999.90;999.90;;;0.40;99.90;;;;;;4993233;28;20708;-72
2023/12/02 01:12:16;;;;;;;1999.90;999.90;;;0.40;99.90;;;;;;4993168;28;20196;-70
2023/12/02 01:14:41;;;;;;;1999.90;999.90;;;0.30;99.90;;;;;;4993180;28;20180;-70
2023/12/02 01:17:07;;;;;;;1999.90;999.90;;;0.40;99.90;;;;;;4992870;28;20173;-70
2023/12/02 01:19:32;;;;;;;1999.90;999.90;;;0.40;99.90;;;;;;4992976;28;20279;-71
2023/12/02 01:21:58;;;;;;;1999.90;999.90;;;0.50;99.90;;;;;;4992950;28;20170;-70
2023/12/02 01:24:23;;;;;;;1999.90;999.90;;;0.50;99.90;;;;;;4992999;28;20661;-70
2023/12/02 01:26:49;;;;;;;1999.90;999.90;;;0.50;99.90;;;;;;4992839;28;20261;-70
2023/12/02 01:29:15;;;;;;;1999.90;999.90;;;0.50;99.90;;;;;;4992858;28;20200;-70
2023/12/02 01:31:40;;;;;;;1999.90;999.90;;;0.50;99.90;;;;;;4992993;28;20577;-71
2023/12/02 01:34:06;;;;;;;1999.90;999.90;;;0.50;99.90;;;;;;4992827;28;20170;-70
2023/12/02 01:36:31;;;;;;;1999.90;999.90;;;0.50;1.00;;;;;;4992827;28;20169;-70
2023/12/02 01:38:58;;;;;;;1999.90;999.90;;;0.50;99.90;;;;;;4992690;28;20201;-71
2023/12/02 01:41:23;;;;;;;1999.90;999.90;;;0.40;99.90;;;;;;4992822;28;20220;-70
2023/12/02 01:43:50;;;;;;;1999.90;999.90;;;0.50;99.90;;;;;;4992746;28;20173;-70
2023/12/02 01:46:15;;;;;;;1999.90;999.90;;;0.40;99.90;;;;;;4992635;28;20603;-70
2023/12/02 01:48:41;;;;;;;1999.90;999.90;;;0.40;99.90;;;;;;4995755;28;20225;-71
2023/12/02 01:51:08;;;;;;;1999.90;999.90;;;0.40;99.90;;;;;;4996669;28;20176;-70
2023/12/02 01:53:33;;;;;;;1999.90;999.90;;;0.40;99.90;;;;;;4996864;28;20177;-70
2023/12/02 01:55:59;;;;;;;1999.90;999.90;;;0.40;99.90;;;;;;4996957;28;20177;-71
2023/12/02 01:58:24;;;;;;;1999.90;999.90;;;0.40;99.90;;;;;;4996396;28;20217;-71
2023/12/02 02:00:50;;;;;;;1999.90;999.90;;;0.50;99.90;;;;;;4996618;28;20260;-70
2023/12/02 02:03:16;;;;;;;1999.90;999.90;;;0.30;99.90;;;;;;4996490;28;20177;-70
2023/12/02 02:05:46;;;;;;;1999.90;999.90;;;0.50;99.90;;;;;;4996667;28;20673;-70
2023/12/02 02:08:11;;;;;;;1999.90;999.90;;;0.50;99.90;;;;;;4996107;28;20429;-70
2023/12/02 02:10:37;;;;;;;1999.90;999.90;;;0.60;99.90;;;;;;4996322;28;20668;-71
2023/12/02 02:13:03;;;;;;;1999.90;999.90;;;0.50;99.90;;;;;;4996332;28;20700;-70
2023/12/02 02:15:28;;;;;;;1999.90;999.90;;;0.50;99.90;;;;;;4996505;28;20177;-70
2023/12/02 02:17:54;;;;;;;1999.90;999.90;;;0.50;99.90;;;;;;4995878;28;20248;-70
2023/12/02 02:20:20;;;;;;;1999.90;999.90;;;0.60;99.90;;;;;;4996401;28;20708;-70
2023/12/02 02:22:45;;;;;;;1999.90;999.90;;;0.60;99.90;;;;;;4996247;28;20165;-70
2023/12/02 02:25:11;;;;;;;1999.90;999.90;;;0.50;99.90;;;;;;4996057;28;20544;-70
2023/12/02 02:27:36;;;;;;;1999.90;999.90;;;0.50;30.50;;;;;;4995888;28;20162;-70
2023/12/02 02:30:02;;;;;;;1999.90;999.90;;;0.50;99.90;;;;;;4996252;28;20237;-70
2023/12/02 02:32:28;;;;;;;1999.90;999.90;;;0.50;99.90;;;;;;4996016;28;20548;-70
2023/12/02 02:34:54;;;;;;;1999.90;999.90;;;0.50;99.90;;;;;;4996194;28;20503;-71
2023/12/02 02:37:20;;;;;;;1999.90;999.90;;;0.50;99.90;;;;;;4995869;28;20201;-71
2023/12/02 02:39:46;;;;;;;1999.90;999.90;;;0.60;99.90;;;;;;4995840;28;20193;-70
2023/12/02 02:42:11;;;;;;;1999.90;999.90;;;0.50;99.90;;;;;;4996068;28;20173;-71
2023/12/02 02:44:37;;;;;;;1999.90;999.90;;;0.40;99.90;;;;;;4996046;28;20245;-70
2023/12/02 02:47:03;;;;;;;1999.90;999.90;;;0.40;99.90;;;;;;4995785;28;20169;-70
2023/12/02 02:49:29;;;;;;;1999.90;999.90;;;0.50;99.90;;;;;;4995936;28;20429;-70
2023/12/02 02:51:55;;;;;;;1999.90;999.90;;;0.50;99.90;;;;;;4995840;28;20181;-70
2023/12/02 02:54:21;;;;;;;1999.90;999.90;;;0.60;99.90;;;;;;4995970;28;20584;-70
2023/12/02 02:56:46;;;;;;;1999.90;999.90;;;0.60;99.90;;;;;;4995778;28;20158;-70
2023/12/02 02:59:12;;;;;;;1999.90;999.90;;;0.60;99.90;;;;;;4994391;28;20217;-70
2023/12/02 03:01:42;;;;;;;1999.90;999.90;;;0.60;99.90;;;;;;4995832;28;20638;-70
2023/12/02 03:04:08;;;;;;;1999.90;999.90;;;0.60;99.90;;;;;;4995766;28;20169;-71
2023/12/02 03:06:34;;;;;;;1999.90;999.90;;;0.60;99.90;;;;;;4995486;28;20253;-70
2023/12/02 03:08:59;;;;;;;1999.90;999.90;;;0.70;99.90;;;;;;4995330;28;21134;-71
2023/12/02 03:11:25;;;;;;;1999.90;999.90;;;0.60;99.90;;;;;;4995581;28;20170;-70
2023/12/02 03:13:51;;;;;;;1999.90;999.90;;;0.60;99.90;;;;;;4995578;28;20170;-70
2023/12/02 03:16:16;;;;;;;1999.90;999.90;;;0.70;99.90;;;;;;4995197;28;20253;-70
2023/12/02 03:18:42;;;;;;;1999.90;999.90;;;0.60;99.90;;;;;;4995225;28;20209;-70
2023/12/02 03:21:07;;;;;;;1999.90;999.90;;;0.60;99.90;;;;;;4995235;28;20170;-70
2023/12/02 03:23:33;;;;;;;1999.90;999.90;;;0.60;99.90;;;;;;4995268;28;20170;-70
2023/12/02 03:25:58;;;;;;;1999.90;999.90;;;0.50;99.90;;;;;;4995261;28;20574;-71
2023/12/02 03:28:24;;;;;;;1999.90;999.90;;;0.60;99.90;;;;;;4994924;28;20221;-69
2023/12/02 03:30:50;;;;;;;1999.90;999.90;;;0.60;99.90;;;;;;4995134;28;20792;-70
2023/12/02 03:33:15;;;;;;;1999.90;999.90;;;0.60;99.90;;;;;;5006836;28;20264;-70
2023/12/02 03:35:41;;;;;;;1999.90;999.90;;;0.60;99.90;;;;;;5014714;28;20486;-71
2023/12/02 03:38:07;;;;;;;1999.90;999.90;;;0.70;99.90;;;;;;5014151;28;20204;-71
2023/12/02 03:40:32;;;;;;;1999.90;999.90;;;0.70;99.90;;;;;;5014723;28;20232;-70
2023/12/02 03:42:58;;;;;;;1999.90;999.90;;;0.70;99.90;;;;;;5014375;28;20267;-70
2023/12/02 03:45:24;;;;;;;1999.90;999.90;;;0.70;99.90;;;;;;5014687;28;20703;-71
2023/12/02 03:47:50;;;;;;;1999.90;999.90;;;0.80;99.90;;;;;;5013709;28;20193;-71
2023/12/02 03:50:15;;;;;;;1999.90;999.90;;;0.70;99.90;;;;;;5013933;28;20169;-71
2023/12/02 03:52:41;;;;;;;1999.90;999.90;;;0.70;99.90;;;;;;5013726;28;20169;-70
2023/12/02 03:55:07;;;;;;;1999.90;999.90;;;0.70;99.90;;;;;;5013810;28;20170;-71
2023/12/02 03:57:32;;;;;;;1999.90;999.90;;;0.60;1.00;;;;;;5013463;28;20232;-72
2023/12/02 03:59:58;;;;;;;1999.90;999.90;;;0.60;99.90;;;;;;5013704;28;20435;-70
2023/12/02 04:02:23;;;;;;;1999.90;999.90;;;0.60;99.90;;;;;;5013592;28;20168;-71
2023/12/02 04:04:49;;;;;;;1999.90;999.90;;;0.60;99.90;;;;;;5014071;28;20166;-70
2023/12/02 04:07:15;;;;;;;1999.90;999.90;;;0.70;99.90;;;;;;5013697;28;20172;-71
2023/12/02 04:09:40;;;;;;;1999.90;999.90;;;0.70;99.90;;;;;;5013775;28;20189;-71
2023/12/02 04:12:06;;;;;;;1999.90;999.90;;;0.60;99.90;;;;;;5013817;28;20536;-71
2023/12/02 04:14:32;;;;;;;1999.90;999.90;;;0.60;99.90;;;;;;5014209;28;20176;-71
2023/12/02 04:16:57;;;;;;;1999.90;999.90;;;0.60;99.90;;;;;;5013341;28;20649;-70
2023/12/02 04:19:23;;;;;;;1999.90;999.90;;;0.50;99.90;;;;;;5013205;28;20197;-70
2023/12/02 04:21:48;;;;;;;1999.90;999.90;;;0.50;99.90;;;;;;5013280;28;20180;-70
2023/12/02 04:24:14;;;;;;;1999.90;999.90;;;0.40;99.90;;;;;;5013244;28;20637;-70
2023/12/02 04:26:41;;;;;;;1999.90;999.90;;;0.40;99.90;;;;;;5013055;28;20219;-70
2023/12/02 04:29:06;;;;;;;1999.90;999.90;;;0.40;99.90;;;;;;5013259;28;20567;-70
2023/12/02 04:31:32;;;;;;;1999.90;999.90;;;0.40;99.90;;;;;;5013147;28;20181;-70
2023/12/02 04:33:57;;;;;;;1999.90;999.90;;;0.40;99.90;;;;;;5013096;28;20180;-70
2023/12/02 04:36:23;;;;;;;1999.90;999.90;;;0.40;99.90;;;;;;5012863;28;20173;-70
2023/12/02 04:38:49;;;;;;;1999.90;999.90;;;0.40;99.90;;;;;;5013127;28;20292;-70
2023/12/02 04:41:14;;;;;;;1999.90;999.90;;;0.30;99.90;;;;;;5012929;28;20219;-71
2023/12/02 04:43:40;;;;;;;1999.90;999.90;;;0.30;99.90;;;;;;5012916;28;20169;-70
2023/12/02 04:46:06;;;;;;;1999.90;999.90;;;0.30;99.90;;;;;;5012906;28;20196;-70
2023/12/02 04:48:33;;;;;;;1999.90;999.90;;;0.30;99.90;;;;;;5012769;28;20232;-71
2023/12/02 04:50:59;;;;;;;1999.90;999.90;;;0.30;99.90;;;;;;5012726;28;20177;-70
2023/12/02 04:53:24;;;;;;;1999.90;999.90;;;0.40;99.90;;;;;;5012742;28;20516;-70
2023/12/02 04:55:52;;;;;;;1999.90;999.90;;;0.30;99.90;;;;;;5012706;28;20169;-71
2023/12/02 04:58:18;;;;;;;1999.90;999.90;;;0.40;99.90;;;;;;5012367;28;20223;-70
2023/12/02 05:00:44;;;;;;;1999.90;999.90;;;0.40;99.90;;;;;;5012906;28;20177;-70
2023/12/02 05:03:10;;;;;;;1999.90;999.90;;;0.40;99.90;;;;;;5012619;28;20654;-70
2023/12/02 05:05:36;;;;;;;1999.90;999.90;;;0.40;99.90;;;;;;5012551;28;20176;-70
2023/12/02 05:08:01;;;;;;;1999.90;999.90;;;0.40;99.90;;;;;;5012300;28;20205;-70
2023/12/02 05:10:27;;;;;;;1999.90;999.90;;;0.40;98.50;;;;;;5012505;28;20248;-70
2023/12/02 05:12:52;;;;;;;1999.90;999.90;;;0.40;99.30;;;;;;5012369;28;20266;-70
2023/12/02 05:15:18;;;;;;;1999.90;999.90;;;0.50;92.70;;;;;;5012575;28;20169;-71
2023/12/02 05:17:45;;;;;;;1999.90;999.90;;;0.50;1.00;;;;;;5012099;28;20189;-71
2023/12/02 05:20:13;;;;;;;1999.90;999.90;;;0.50;99.90;;;;;;5012322;28;20204;-71
2023/12/02 05:22:41;;;;;;;1999.90;999.90;;;0.50;99.90;;;;;;5011790;28;20177;-71
2023/12/02 05:25:07;;;;;;;1999.90;999.90;;;0.40;99.90;;;;;;5012477;28;20180;-71
2023/12/02 05:27:33;;;;;;;1999.90;999.90;;;0.40;1.00;;;;;;5012113;28;20538;-70
2023/12/02 05:29:59;;;;;;;1999.90;999.90;;;0.40;99.90;;;;;;5012262;28;20231;-70
2023/12/02 05:32:25;;;;;;;1999.90;999.90;;;0.40;99.90;;;;;;5012124;28;20260;-71
2023/12/02 05:34:51;;;;;;;1999.90;999.90;;;0.40;99.90;;;;;;5012124;28;20252;-70
2023/12/02 05:37:16;;;;;;;1999.90;999.90;;;0.40;99.90;;;;;;5011880;28;20184;-70
2023/12/02 05:39:42;;;;;;;1999.90;999.90;;;0.30;99.90;;;;;;5012118;28;20931;-70
2023/12/02 05:42:08;;;;;;;1999.90;999.90;;;0.30;99.90;;;;;;4990166;28;20177;-71
2023/12/02 05:44:34;;;;;;;1999.90;999.90;;;0.40;99.90;;;;;;4992361;28;20197;-71
2023/12/02 05:47:00;;;;;;;1999.90;999.90;;;0.30;99.90;;;;;;4992201;28;20459;-71
2023/12/02 05:49:25;;;;;;;1999.90;999.90;;;0.30;99.90;;;;;;4992312;28;20232;-71
2023/12/02 05:51:51;;;;;;;1999.90;999.90;;;0.30;99.90;;;;;;4992597;28;20193;-71
2023/12/02 05:54:16;;;;;;;1999.90;999.90;;;0.30;89.80;;;;;;4992481;28;20712;-71
2023/12/02 05:56:42;;;;;;;1999.90;999.90;;;0.30;86.80;;;;;;4992156;28;20176;-70
2023/12/02 05:59:07;;;;;;;1999.90;999.90;;;0.30;93.70;;;;;;4992121;28;20255;-71
2023/12/02 06:01:34;;;;;;;1999.90;999.90;;;0.30;94.00;;;;;;4992256;28;20244;-71
2023/12/02 06:04:00;;;;;;;1999.90;999.90;;;0.30;99.90;;;;;;4992270;28;20185;-71
2023/12/02 06:06:25;;;;;;;1999.90;999.90;;;0.30;99.90;;;;;;4992113;28;20178;-71
2023/12/02 06:08:51;;;;;;;1999.90;999.90;;;0.30;99.90;;;;;;4992242;28;20239;-71
2023/12/02 06:11:16;;;;;;;1999.90;999.90;;;0.40;99.90;;;;;;4992235;28;20185;-71
2023/12/02 06:13:42;;;;;;;1999.90;999.90;;;0.30;58.50;;;;;;4992196;28;20180;-71
2023/12/02 06:16:08;;;;;;;1999.90;999.90;;;0.30;57.80;;;;;;4992251;28;20170;-70
2023/12/02 06:18:33;;;;;;;1999.90;999.90;;;0.30;97.10;;;;;;4991758;28;20211;-71
2023/12/02 06:20:59;;;;;;;1999.90;999.90;;;0.30;88.40;;;;;;4992172;28;20896;-71
2023/12/02 06:23:25;;;;;;;1999.90;999.90;;;0.40;99.90;;;;;;4992327;28;20548;-72
2023/12/02 06:25:50;;;;;;;1999.90;999.90;;;0.40;99.90;;;;;;4992071;28;20704;-71
2023/12/02 06:28:16;;;;;;;1999.90;999.90;;;0.50;99.90;;;;;;4991843;28;20201;-70
2023/12/02 06:30:42;;;;;;;1999.90;999.90;;;0.40;99.90;;;;;;4992413;28;20186;-71
2023/12/02 06:33:08;;;;;;;1999.90;999.90;;;0.30;99.90;;;;;;4992138;28;20277;-70
2023/12/02 06:35:33;;;;;;;1999.90;999.90;;;0.40;99.90;;;;;;4995587;28;20413;-70
2023/12/02 06:37:59;;;;;;;1999.90;999.90;;;0.30;15.90;;;;;;4995220;28;20707;-71
2023/12/02 06:40:25;;;;;;;1999.90;999.90;;;0.20;45.70;;;;;;4995397;28;20213;-71
2023/12/02 06:42:51;;;;;;;1999.90;999.90;;;0.20;58.70;;;;;;4995589;28;20228;-71
2023/12/02 06:45:16;;;;;;;1999.90;999.90;;;0.20;97.60;;;;;;4988491;28;20422;-71
2023/12/02 06:47:42;;;;;;;1999.90;999.90;;;0.20;1.00;;;;;;4995227;28;20719;-70
2023/12/02 06:50:08;;;;;;;1999.90;999.90;;;0.20;33.60;;;;;;4995406;28;20174;-71
2023/12/02 06:52:33;;;;;;;1999.90;999.90;;;0.20;56.90;;;;;;4995501;28;20256;-71
2023/12/02 06:54:59;;;;;;;1999.90;999.90;;;0.20;65.10;;;;;;4995439;28;20685;-71
2023/12/02 06:57:25;;;;;;;1999.90;999.90;;;0.30;84.20;;;;;;4994903;28;20169;-71
2023/12/02 06:59:51;;;;;;;1999.90;999.90;;;0.30;62.80;;;;;;4995134;28;20186;-70
2023/12/02 07:02:17;;;;;;;1999.90;999.90;;;0.30;57.80;;;;;;4995076;28;20170;-71
2023/12/02 07:04:45;;;;;;;1999.90;999.90;;;0.30;25.00;;;;;;4995120;28;20249;-71
2023/12/02 07:07:11;;;;;;;1999.90;999.90;;;0.30;17.40;;;;;;4994907;28;20162;-71
2023/12/02 07:09:37;;;;;;;1999.90;999.90;;;0.30;20.30;;;;;;4993731;28;20708;-71
2023/12/02 07:12:03;;;;;;;1999.90;999.90;;;0.30;19.60;;;;;;4994887;28;20244;-71
2023/12/02 07:14:28;;;;;;;1999.90;999.90;;;0.40;1.00;;;;;;4995010;28;20166;-70
2023/12/02 07:16:54;;;;;;;1999.90;999.90;;;0.30;7.00;;;;;;4994786;28;20408;-71
2023/12/02 07:19:19;;;;;;;1999.90;999.90;;;0.30;16.60;;;;;;4994700;28;20216;-71
2023/12/02 07:21:45;;;;;;;1999.90;999.90;;;0.10;21.20;;;;;;4994702;28;20169;-71
2023/12/02 07:24:11;;;;;;;1999.90;999.90;;;1.50;99.90;;;;;;4994609;28;20232;-71
2023/12/02 07:26:36;;;;;;;1999.90;999.90;;;-0.40;99.90;;;;;;4994565;28;20166;-71
2023/12/02 07:29:02;;;;;;;1999.90;999.90;;;-0.40;99.90;;;;;;4994152;28;20204;-71
2023/12/02 07:31:27;;;;;;;1999.90;999.90;;;-0.60;1.00;;;;;;4994103;28;20174;-71
2023/12/02 07:33:53;;;;;;;1999.90;999.90;;;-0.60;1.00;;;;;;4994102;28;20166;-71
2023/12/02 07:36:19;;;;;;;1999.90;999.90;;;-0.70;1.00;;;;;;4994221;28;20169;-70
2023/12/02 07:38:44;;;;;;;1999.90;999.90;;;-0.70;1.00;;;;;;4994118;28;20198;-71
2023/12/02 07:41:10;;;;;;;1999.90;999.90;;;-0.80;1.00;;;;;;4992629;28;20173;-71
2023/12/02 07:43:36;;;;;;;1999.90;999.90;;;-0.90;1.00;;;;;;4993898;28;20165;-71
2023/12/02 07:46:01;;;;;;;1999.90;999.90;;;-0.90;1.00;;;;;;4993184;28;20405;-71
2023/12/02 07:48:27;;;;;;;1999.90;999.90;;;-0.90;1.00;;;;;;4994006;28;20269;-71
2023/12/02 07:50:53;;;;;;;1999.90;999.90;;;-1.00;1.00;;;;;;4994317;28;20588;-71
2023/12/02 07:53:18;;;;;;;1999.90;999.90;;;-1.00;99.90;;;;;;4994356;28;20181;-71
2023/12/02 07:55:44;;;;;;;1999.90;999.90;;;-1.00;99.90;;;;;;4994437;28;20628;-71
2023/12/02 07:58:09;;;;;;;1999.90;999.90;;;-1.00;99.90;;;;;;4989686;28;20210;-71
2023/12/02 08:00:35;;;;;;;1999.90;999.90;;;-1.00;35.40;;;;;;4994300;28;20228;-70
2023/12/02 08:03:01;;;;;;;1999.90;999.90;;;-1.10;99.90;;;;;;4994473;28;20585;-71
2023/12/02 08:05:26;;;;;;;1999.90;999.90;;;-1.00;99.90;;;;;;4994888;28;20162;-71
2023/12/02 08:07:52;;;;;;;1999.90;999.90;;;-1.00;99.90;;;;;;4994232;28;20301;-71
2023/12/02 08:10:18;;;;;;;1999.90;999.90;;;-1.00;99.90;;;;;;4994903;28;20220;-71
2023/12/02 08:12:43;;;;;;;1999.90;999.90;;;-1.00;99.90;;;;;;4994402;28;20217;-71
2023/12/02 08:15:09;;;;;;;1999.90;999.90;;;-0.90;99.90;;;;;;4994386;28;20420;-72
2023/12/02 08:17:35;;;;;;;1999.90;999.90;;;-0.80;56.70;;;;;;4993920;28;20268;-71
2023/12/02 08:20:05;;;;;;;1999.90;999.90;;;-0.90;99.90;;;;;;4993970;28;20397;-71
2023/12/02 08:22:31;;;;;;;1999.90;999.90;;;-0.90;99.90;;;;;;4993768;28;20173;-71
2023/12/02 08:24:57;;;;;;;1999.90;999.90;;;-0.90;99.90;;;;;;4993926;28;20688;-70
2023/12/02 08:27:23;;;;;;;1999.90;999.90;;;-0.80;64.20;;;;;;4993650;28;20405;-71
2023/12/02 08:29:49;;;;;;;1999.90;999.90;;;-0.80;99.90;;;;;;4993676;28;20193;-71
2023/12/02 08:32:14;;;;;;;1999.90;999.90;;;-0.80;5.30;;;;;;4993736;28;20444;-71
2023/12/02 08:34:40;;;;;;;1999.90;999.90;;;-0.80;99.90;;;;;;4993774;28;20221;-70
2023/12/02 08:37:06;;;;;;;1999.90;999.90;;;-0.70;18.10;;;;;;4992747;28;20174;-70
2023/12/02 08:39:32;;;;;;;1999.90;999.90;;;-0.70;1.00;;;;;;4989083;28;20223;-71
2023/12/02 08:41:57;;;;;;;1999.90;999.90;;;-0.70;1.00;;;;;;4993375;28;20397;-69
2023/12/02 08:44:24;;;;;;;1999.90;999.90;;;-0.70;1.00;;;;;;4990586;28;20828;-71
2023/12/02 08:46:50;;;;;;;1999.90;999.90;;;-0.80;1.00;;;;;;4988748;28;20409;-70
2023/12/02 08:49:16;;;;;;;1999.90;999.90;;;-0.80;1.00;;;;;;4988524;28;20779;-71
2023/12/02 08:51:41;;;;;;;1999.90;999.90;;;-0.80;1.00;;;;;;4989856;28;20227;-71
2023/12/02 08:54:07;;;;;;;1999.90;999.90;;;-1.50;1.00;;;;;;4988776;28;20840;-71
2023/12/02 08:56:33;;;;;;;1999.90;999.90;;;-0.90;99.90;;;;;;4988739;28;20182;-71
2023/12/02 08:58:59;;;;;;;1999.90;999.90;;;-0.90;74.80;;;;;;4989797;28;21017;-71
2023/12/02 09:01:25;;;;;;;1999.90;999.90;;;-0.90;1.00;;;;;;4989228;28;20423;-72
2023/12/02 09:03:51;;;;;;;1999.90;999.90;;;-0.90;1.00;;;;;;4987852;28;20413;-70
2023/12/02 09:06:17;;;;;;;1999.90;999.90;;;-0.80;1.00;;;;;;4986177;28;21117;-70
2023/12/02 09:08:42;;;;;;;1999.90;999.90;;;-0.80;1.00;;;;;;4982936;28;20344;-70
2023/12/02 09:11:08;;;;;;;1999.90;999.90;;;-0.60;1.00;;;;;;4981488;28;20185;-70
2023/12/02 09:13:51;;;;;;;1999.90;999.90;;;-0.40;1.00;;;;;;4986628;28;20329;-70
2023/12/02 09:16:22;;;;;;;1999.90;999.90;;;0.30;1.00;;;;;;4983273;28;20187;-70
2023/12/02 09:18:48;;;;;;;1999.90;999.90;;;0.00;99.90;;;;;;4988569;28;20206;-70
2023/12/02 09:21:42;;;;;;;1999.90;999.90;;;0.10;99.90;;;;;;4983110;28;20190;-70
2023/12/02 09:24:38;;;;;;;1999.90;999.90;;;0.30;99.90;;;;;;4983492;28;20248;-70
2023/12/02 09:27:05;;;;;;;1999.90;999.90;;;0.00;63.40;;;;;;4964584;28;20282;-71
2023/12/02 09:29:37;;;;;;;1999.90;999.90;;;0.00;99.90;;;;;;4969047;28;20690;-70
2023/12/02 09:32:16;;;;;;;1999.90;999.90;;;-0.20;99.90;;;;;;4982850;28;20217;-69
2023/12/02 09:34:42;;;;;;;1999.90;999.90;;;-0.30;99.90;;;;;;4982893;28;20253;-70
2023/12/02 09:37:47;;;;;;;1999.90;999.90;;;-0.30;99.90;;;;;;4989591;28;20241;-70
2023/12/02 09:40:22;;;;;;;1999.90;999.90;;;-0.30;1.00;;;;;;4973305;28;20201;-69
2023/12/02 09:43:03;;;;;;;1999.90;999.90;;;-0.40;99.90;;;;;;4988183;28;20902;-70
2023/12/02 09:45:37;;;;;;;1999.90;999.90;;;-0.40;99.90;;;;;;4986595;28;20201;-71
2023/12/02 09:48:31;;;;;;;1999.90;999.90;;;-0.40;99.90;;;;;;4987981;28;20220;-71
2023/12/02 09:51:23;;;;;;;1999.90;999.90;;;-0.40;1.00;;;;;;4982490;28;20195;-70
2023/12/02 09:54:03;;;;;;;1999.90;999.90;;;-0.40;99.90;;;;;;4987943;28;20178;-71
2023/12/02 09:56:35;;;;;;;1999.90;999.90;;;-0.20;99.90;;;;;;4986990;28;20873;-72
2023/12/02 09:59:09;;;;;;;1999.90;999.90;;;-0.20;99.90;;;;;;4987727;28;20715;-72
2023/12/02 10:01:49;;;;;;;1999.90;999.90;;;-0.30;99.90;;;;;;4985665;28;20177;-71
2023/12/02 10:04:37;;;;;;;1999.90;999.90;;;-0.30;99.90;;;;;;4987671;28;20186;-72
2023/12/02 10:07:16;;;;;;;1999.90;999.90;;;-0.30;99.90;;;;;;4988381;28;20174;-71
2023/12/02 10:09:53;;;;;;;1999.90;999.90;;;-0.20;99.90;;;;;;4991351;28;20201;-71
2023/12/02 10:12:46;;;;;;;1999.90;999.90;;;-0.20;99.90;;;;;;4992437;28;20178;-72
2023/12/02 10:15:12;;;;;;;1999.90;999.90;;;-0.20;99.90;;;;;;4990153;28;20277;-72
2023/12/02 10:17:52;;;;;;;1999.90;999.90;;;-0.30;99.90;;;;;;4986334;28;20216;-72
2023/12/02 10:20:24;;;;;;;1999.90;999.90;;;-0.30;1.00;;;;;;4991697;28;20177;-69
2023/12/02 10:23:04;;;;;;;1999.90;999.90;;;-0.10;1.00;;;;;;4992076;28;20166;-69
2023/12/02 10:25:40;;;;;;;1999.90;999.90;;;-0.20;1.00;;;;;;4992405;28;20189;-70
2023/12/02 10:28:20;;;;;;;1999.90;999.90;;;-0.20;28.50;;;;;;4991765;28;20198;-69
2023/12/02 10:30:50;;;;;;;1999.90;999.90;;;-0.10;3.40;;;;;;4989653;28;20268;-69
2023/12/02 10:33:38;;;;;;;1999.90;999.90;;;-0.10;1.00;;;;;;4985800;28;20253;-70
2023/12/02 10:36:07;;;;;;;1999.90;999.90;;;-0.10;1.00;;;;;;4982889;28;20205;-70
2023/12/02 10:38:56;;;;;;;1999.90;999.90;;;-0.10;1.00;;;;;;4986042;28;20216;-71
2023/12/02 10:41:34;;;;;;;1999.90;999.90;;;-0.10;1.00;;;;;;4988628;28;20650;-70
2023/12/02 10:44:09;;;;;;;1999.90;999.90;;;0.00;1.00;;;;;;4993835;28;20178;-71
2023/12/02 10:46:38;;;;;;;1999.90;999.90;;;0.10;99.90;;;;;;4991743;28;20273;-72
2023/12/02 10:49:05;;;;;;;1999.90;999.90;;;0.00;1.00;;;;;;4992368;28;20624;-72
2023/12/02 10:51:38;;;;;;;1999.90;999.90;;;0.00;99.90;;;;;;4991309;28;20186;-73
2023/12/02 10:54:05;;;;;;;1999.90;999.90;;;0.00;99.90;;;;;;4986420;28;20209;-73
2023/12/02 10:56:35;;;;;;;1999.90;999.90;;;0.20;99.90;;;;;;4989465;28;20197;-70
2023/12/02 10:59:02;;;;;;;1999.90;999.90;;;0.30;99.90;;;;;;4990360;28;20751;-71
2023/12/02 11:01:44;;;;;;;1999.90;999.90;;;0.40;99.90;;;;;;4991232;28;20184;-71
2023/12/02 11:04:33;;;;;;;1999.90;999.90;;;0.40;99.90;;;;;;4990646;28;20771;-69
2023/12/02 11:07:03;;;;;;;1999.90;999.90;;;0.30;99.90;;;;;;4989721;28;20579;-70
2023/12/02 11:09:55;;;;;;;1999.90;999.90;;;0.30;99.90;;;;;;4987313;28;20197;-71
2023/12/02 11:12:45;;;;;;;1999.90;999.90;;;0.50;99.90;;;;;;4990913;28;20182;-71
2023/12/02 11:15:13;;;;;;;1999.90;999.90;;;1.20;99.90;;;;;;4990279;28;20585;-71
2023/12/02 11:17:44;;;;;;;1999.90;999.90;;;1.60;99.90;;;;;;4990596;28;20208;-71
2023/12/02 11:20:22;;;;;;;1999.90;999.90;;;1.60;1.00;;;;;;4989732;28;20180;-72
2023/12/02 11:23:06;;;;;;;1999.90;999.90;;;1.50;1.00;;;;;;4990999;28;20193;-71
2023/12/02 11:25:50;;;;;;;1999.90;999.90;;;1.20;1.00;;;;;;4990814;28;20181;-70
2023/12/02 11:28:18;;;;;;;1999.90;999.90;;;1.40;1.00;;;;;;4989994;28;20198;-71
2023/12/02 11:30:56;;;;;;;1999.90;999.90;;;1.70;1.00;;;;;;4990853;28;20189;-71
2023/12/02 11:33:43;;;;;;;1999.90;999.90;;;2.20;1.00;;;;;;4990710;28;20185;-70
2023/12/02 11:36:16;;;;;;;1999.90;999.90;;;2.60;1.00;;;;;;4990179;28;20185;-71
2023/12/02 11:39:16;;;;;;;1999.90;999.90;;;2.90;1.00;;;;;;4989968;28;20263;-71
2023/12/02 11:42:00;;;;;;;1999.90;999.90;;;3.10;1.00;;;;;;4990818;28;20180;-71
2023/12/02 11:44:36;;;;;;;1999.90;999.90;;;2.80;1.00;;;;;;4990465;28;20679;-71
2023/12/02 11:47:25;;;;;;;1999.90;999.90;;;2.30;1.00;;;;;;4989859;28;20215;-71
2023/12/02 11:50:06;;;;;;;1999.90;999.90;;;1.80;1.00;;;;;;4989702;28;20202;-70
2023/12/02 11:52:56;;;;;;;1999.90;999.90;;;1.50;1.00;;;;;;4990414;28;20765;-70
2023/12/02 11:55:49;;;;;;;1999.90;999.90;;;1.70;1.00;;;;;;4990214;28;20550;-71
2023/12/02 11:58:34;;;;;;;1999.90;999.90;;;2.00;1.00;;;;;;4989404;28;20217;-71
2023/12/02 12:01:05;;;;;;;1999.90;999.90;;;2.90;1.00;;;;;;4990602;28;20264;-71
2023/12/02 12:03:33;;;;;;;1999.90;999.90;;;3.70;1.00;;;;;;4989913;28;20169;-71
2023/12/02 12:06:35;;;;;;;1999.90;999.90;;;4.10;1.00;;;;;;4989705;28;20194;-70
2023/12/02 12:09:00;;;;;;;1999.90;999.90;;;4.90;17.30;;;;;;4989644;28;20205;-71
2023/12/02 12:11:28;;;;;;;1999.90;999.90;;;5.10;1.00;;;;;;4990316;28;20951;-71
2023/12/02 12:13:55;;;;;;;1999.90;999.90;;;5.30;1.00;;;;;;4989636;28;20258;-70
2023/12/02 12:16:20;;;;;;;1999.90;999.90;;;5.50;26.20;;;;;;4989149;28;20425;-71